sensor_id;sensor_type;location;lat;lon;timestamp;P1;durP1;ratioP1;P2;durP2;ratioP2
28988;SDS011;16089;59.952;10.818;2022-12-07T00:00:31;3.28;;;0.80;;
28988;SDS011;16089;59.952;10.818;2022-12-07T00:02:57;2.13;;;0.50;;
28988;SDS011;16089;59.952;10.818;2022-12-07T00:05:23;1.10;;;0.40;;
28988;SDS011;16089;59.952;10.818;2022-12-07T00:07:50;1.60;;;0.50;;
28988;SDS011;16089;59.952;10.818;2022-12-07T00:10:17;2.42;;;0.30;;
28988;SDS011;16089;59.952;10.818;2022-12-07T00:12:43;2.80;;;0.50;;
28988;SDS011;16089;59.952;10.818;2022-12-07T00:15:10;3.33;;;0.60;;
28988;SDS011;16089;59.952;10.818;2022-12-07T00:17:36;2.40;;;0.60;;
28988;SDS011;16089;59.952;10.818;2022-12-07T00:20:03;3.58;;;0.70;;
28988;SDS011;16089;59.952;10.818;2022-12-07T00:22:29;2.25;;;0.60;;
28988;SDS011;16089;59.952;10.818;2022-12-07T00:24:55;3.30;;;0.68;;
28988;SDS011;16089;59.952;10.818;2022-12-07T00:27:23;4.80;;;0.90;;
28988;SDS011;16089;59.952;10.818;2022-12-07T00:29:50;3.17;;;0.60;;
28988;SDS011;16089;59.952;10.818;2022-12-07T00:32:16;3.97;;;0.70;;
28988;SDS011;16089;59.952;10.818;2022-12-07T00:34:42;4.03;;;0.90;;
28988;SDS011;16089;59.952;10.818;2022-12-07T00:37:08;2.90;;;0.52;;
28988;SDS011;16089;59.952;10.818;2022-12-07T00:39:35;2.15;;;0.50;;
28988;SDS011;16089;59.952;10.818;2022-12-07T00:42:01;1.98;;;0.40;;
28988;SDS011;16089;59.952;10.818;2022-12-07T00:44:29;2.13;;;0.60;;
28988;SDS011;16089;59.952;10.818;2022-12-07T00:46:55;1.85;;;0.47;;
28988;SDS011;16089;59.952;10.818;2022-12-07T00:49:21;4.00;;;0.77;;
28988;SDS011;16089;59.952;10.818;2022-12-07T00:51:48;3.20;;;0.60;;
28988;SDS011;16089;59.952;10.818;2022-12-07T00:54:14;1.02;;;0.30;;
28988;SDS011;16089;59.952;10.818;2022-12-07T00:56:40;1.95;;;0.50;;
28988;SDS011;16089;59.952;10.818;2022-12-07T00:59:06;2.15;;;0.50;;
28988;SDS011;16089;59.952;10.818;2022-12-07T01:01:34;4.32;;;0.60;;
28988;SDS011;16089;59.952;10.818;2022-12-07T01:04:01;3.15;;;1.30;;
28988;SDS011;16089;59.952;10.818;2022-12-07T01:06:28;3.90;;;1.15;;
28988;SDS011;16089;59.952;10.818;2022-12-07T01:08:54;2.58;;;0.90;;
28988;SDS011;16089;59.952;10.818;2022-12-07T01:11:21;2.50;;;0.60;;
28988;SDS011;16089;59.952;10.818;2022-12-07T01:13:49;1.17;;;0.40;;
28988;SDS011;16089;59.952;10.818;2022-12-07T01:16:16;2.90;;;0.50;;
28988;SDS011;16089;59.952;10.818;2022-12-07T01:18:45;3.25;;;0.60;;
28988;SDS011;16089;59.952;10.818;2022-12-07T01:21:13;5.18;;;0.65;;
28988;SDS011;16089;59.952;10.818;2022-12-07T01:23:39;1.45;;;0.40;;
28988;SDS011;16089;59.952;10.818;2022-12-07T01:26:06;2.35;;;0.30;;
28988;SDS011;16089;59.952;10.818;2022-12-07T01:28:33;1.92;;;0.50;;
28988;SDS011;16089;59.952;10.818;2022-12-07T01:31:00;2.55;;;0.60;;
28988;SDS011;16089;59.952;10.818;2022-12-07T01:33:27;2.15;;;0.55;;
28988;SDS011;16089;59.952;10.818;2022-12-07T01:35:55;2.95;;;0.70;;
28988;SDS011;16089;59.952;10.818;2022-12-07T01:38:26;1.55;;;0.50;;
28988;SDS011;16089;59.952;10.818;2022-12-07T01:40:55;4.28;;;0.47;;
28988;SDS011;16089;59.952;10.818;2022-12-07T01:43:21;2.85;;;0.75;;
28988;SDS011;16089;59.952;10.818;2022-12-07T01:45:48;1.50;;;0.50;;
28988;SDS011;16089;59.952;10.818;2022-12-07T01:48:15;1.83;;;0.40;;
28988;SDS011;16089;59.952;10.818;2022-12-07T01:50:44;4.30;;;0.68;;
28988;SDS011;16089;59.952;10.818;2022-12-07T01:53:12;1.63;;;0.65;;
28988;SDS011;16089;59.952;10.818;2022-12-07T01:55:40;2.28;;;0.45;;
28988;SDS011;16089;59.952;10.818;2022-12-07T01:58:06;2.78;;;0.70;;
28988;SDS011;16089;59.952;10.818;2022-12-07T02:00:33;2.20;;;0.50;;
28988;SDS011;16089;59.952;10.818;2022-12-07T02:03:01;1.83;;;0.50;;
28988;SDS011;16089;59.952;10.818;2022-12-07T02:05:30;1.67;;;0.70;;
28988;SDS011;16089;59.952;10.818;2022-12-07T02:07:57;1.63;;;0.50;;
28988;SDS011;16089;59.952;10.818;2022-12-07T02:10:26;3.58;;;0.60;;
28988;SDS011;16089;59.952;10.818;2022-12-07T02:12:54;2.15;;;0.60;;
28988;SDS011;16089;59.952;10.818;2022-12-07T02:15:22;2.00;;;0.57;;
28988;SDS011;16089;59.952;10.818;2022-12-07T02:17:54;1.65;;;0.68;;
28988;SDS011;16089;59.952;10.818;2022-12-07T02:20:26;1.75;;;0.80;;
28988;SDS011;16089;59.952;10.818;2022-12-07T02:23:15;2.25;;;0.60;;
28988;SDS011;16089;59.952;10.818;2022-12-07T02:25:52;1.92;;;0.60;;
28988;SDS011;16089;59.952;10.818;2022-12-07T02:28:24;0.85;;;0.50;;
28988;SDS011;16089;59.952;10.818;2022-12-07T02:30:54;2.20;;;0.70;;
28988;SDS011;16089;59.952;10.818;2022-12-07T02:33:23;1.98;;;0.52;;
28988;SDS011;16089;59.952;10.818;2022-12-07T02:35:52;3.70;;;0.60;;
28988;SDS011;16089;59.952;10.818;2022-12-07T02:38:22;1.13;;;0.50;;
28988;SDS011;16089;59.952;10.818;2022-12-07T02:40:51;4.60;;;0.70;;
28988;SDS011;16089;59.952;10.818;2022-12-07T02:43:19;3.20;;;0.50;;
28988;SDS011;16089;59.952;10.818;2022-12-07T02:45:46;0.57;;;0.40;;
28988;SDS011;16089;59.952;10.818;2022-12-07T02:48:15;2.40;;;0.70;;
28988;SDS011;16089;59.952;10.818;2022-12-07T02:50:43;1.75;;;0.65;;
28988;SDS011;16089;59.952;10.818;2022-12-07T02:55:51;4.60;;;0.63;;
28988;SDS011;16089;59.952;10.818;2022-12-07T02:58:20;2.95;;;0.60;;
28988;SDS011;16089;59.952;10.818;2022-12-07T03:00:52;2.53;;;0.70;;
28988;SDS011;16089;59.952;10.818;2022-12-07T03:03:21;1.65;;;0.43;;
28988;SDS011;16089;59.952;10.818;2022-12-07T03:05:52;2.20;;;0.47;;
28988;SDS011;16089;59.952;10.818;2022-12-07T03:08:23;1.00;;;0.50;;
28988;SDS011;16089;59.952;10.818;2022-12-07T03:10:54;2.20;;;0.45;;
28988;SDS011;16089;59.952;10.818;2022-12-07T03:13:23;2.95;;;0.88;;
28988;SDS011;16089;59.952;10.818;2022-12-07T03:15:52;1.90;;;0.57;;
28988;SDS011;16089;59.952;10.818;2022-12-07T03:18:20;1.95;;;0.43;;
28988;SDS011;16089;59.952;10.818;2022-12-07T03:20:49;2.08;;;0.60;;
28988;SDS011;16089;59.952;10.818;2022-12-07T03:23:17;1.55;;;0.40;;
28988;SDS011;16089;59.952;10.818;2022-12-07T03:25:45;2.15;;;0.50;;
28988;SDS011;16089;59.952;10.818;2022-12-07T03:28:13;3.53;;;0.85;;
28988;SDS011;16089;59.952;10.818;2022-12-07T03:30:42;1.33;;;0.30;;
28988;SDS011;16089;59.952;10.818;2022-12-07T03:33:11;3.03;;;0.50;;
28988;SDS011;16089;59.952;10.818;2022-12-07T03:35:38;1.98;;;0.45;;
28988;SDS011;16089;59.952;10.818;2022-12-07T03:38:08;2.10;;;0.60;;
28988;SDS011;16089;59.952;10.818;2022-12-07T03:40:37;3.13;;;0.50;;
28988;SDS011;16089;59.952;10.818;2022-12-07T03:43:05;1.48;;;0.45;;
28988;SDS011;16089;59.952;10.818;2022-12-07T03:45:32;3.10;;;0.77;;
28988;SDS011;16089;59.952;10.818;2022-12-07T03:48:03;2.03;;;0.40;;
28988;SDS011;16089;59.952;10.818;2022-12-07T03:50:32;0.52;;;0.25;;
28988;SDS011;16089;59.952;10.818;2022-12-07T03:53:02;0.93;;;0.35;;
28988;SDS011;16089;59.952;10.818;2022-12-07T03:55:32;2.80;;;0.60;;
28988;SDS011;16089;59.952;10.818;2022-12-07T03:58:02;1.85;;;0.40;;
28988;SDS011;16089;59.952;10.818;2022-12-07T04:00:30;2.22;;;0.40;;
28988;SDS011;16089;59.952;10.818;2022-12-07T04:02:56;4.03;;;0.60;;
28988;SDS011;16089;59.952;10.818;2022-12-07T04:05:23;2.03;;;0.30;;
28988;SDS011;16089;59.952;10.818;2022-12-07T04:07:49;1.17;;;0.45;;
28988;SDS011;16089;59.952;10.818;2022-12-07T04:10:15;1.85;;;0.38;;
28988;SDS011;16089;59.952;10.818;2022-12-07T04:12:43;1.17;;;0.40;;
28988;SDS011;16089;59.952;10.818;2022-12-07T04:15:09;1.73;;;0.50;;
28988;SDS011;16089;59.952;10.818;2022-12-07T04:17:36;1.10;;;0.30;;
28988;SDS011;16089;59.952;10.818;2022-12-07T04:20:03;1.73;;;0.30;;
28988;SDS011;16089;59.952;10.818;2022-12-07T04:22:30;2.67;;;0.38;;
28988;SDS011;16089;59.952;10.818;2022-12-07T04:24:56;1.30;;;0.30;;
28988;SDS011;16089;59.952;10.818;2022-12-07T04:27:22;0.98;;;0.38;;
28988;SDS011;16089;59.952;10.818;2022-12-07T04:29:50;0.60;;;0.20;;
28988;SDS011;16089;59.952;10.818;2022-12-07T04:32:16;2.28;;;0.30;;
28988;SDS011;16089;59.952;10.818;2022-12-07T04:34:42;0.63;;;0.30;;
28988;SDS011;16089;59.952;10.818;2022-12-07T04:37:09;1.33;;;0.40;;
28988;SDS011;16089;59.952;10.818;2022-12-07T04:39:36;2.15;;;0.20;;
28988;SDS011;16089;59.952;10.818;2022-12-07T04:42:02;1.55;;;0.50;;
28988;SDS011;16089;59.952;10.818;2022-12-07T04:44:29;1.05;;;0.30;;
28988;SDS011;16089;59.952;10.818;2022-12-07T04:46:56;0.65;;;0.32;;
28988;SDS011;16089;59.952;10.818;2022-12-07T04:49:23;3.20;;;0.43;;
28988;SDS011;16089;59.952;10.818;2022-12-07T04:51:50;3.92;;;0.43;;
28988;SDS011;16089;59.952;10.818;2022-12-07T04:54:16;1.13;;;0.30;;
28988;SDS011;16089;59.952;10.818;2022-12-07T04:56:43;0.82;;;0.38;;
28988;SDS011;16089;59.952;10.818;2022-12-07T04:59:10;2.47;;;0.40;;
28988;SDS011;16089;59.952;10.818;2022-12-07T05:01:36;3.97;;;0.75;;
28988;SDS011;16089;59.952;10.818;2022-12-07T05:04:04;1.50;;;0.40;;
28988;SDS011;16089;59.952;10.818;2022-12-07T05:06:31;0.57;;;0.30;;
28988;SDS011;16089;59.952;10.818;2022-12-07T05:08:57;0.57;;;0.25;;
28988;SDS011;16089;59.952;10.818;2022-12-07T05:11:23;1.42;;;0.30;;
28988;SDS011;16089;59.952;10.818;2022-12-07T05:14:06;0.75;;;0.40;;
28988;SDS011;16089;59.952;10.818;2022-12-07T05:16:32;0.68;;;0.30;;
28988;SDS011;16089;59.952;10.818;2022-12-07T05:18:59;3.80;;;0.35;;
28988;SDS011;16089;59.952;10.818;2022-12-07T05:21:26;1.42;;;0.40;;
28988;SDS011;16089;59.952;10.818;2022-12-07T05:23:52;1.85;;;0.30;;
28988;SDS011;16089;59.952;10.818;2022-12-07T05:26:19;1.95;;;0.40;;
28988;SDS011;16089;59.952;10.818;2022-12-07T05:28:49;8.05;;;0.60;;
28988;SDS011;16089;59.952;10.818;2022-12-07T05:31:15;0.93;;;0.40;;
28988;SDS011;16089;59.952;10.818;2022-12-07T05:33:42;2.10;;;0.52;;
28988;SDS011;16089;59.952;10.818;2022-12-07T05:36:08;1.30;;;0.45;;
28988;SDS011;16089;59.952;10.818;2022-12-07T05:38:36;1.20;;;0.38;;
28988;SDS011;16089;59.952;10.818;2022-12-07T05:41:02;1.02;;;0.32;;
28988;SDS011;16089;59.952;10.818;2022-12-07T05:43:29;1.02;;;0.50;;
28988;SDS011;16089;59.952;10.818;2022-12-07T05:45:55;1.85;;;0.50;;
28988;SDS011;16089;59.952;10.818;2022-12-07T05:48:22;1.05;;;0.47;;
28988;SDS011;16089;59.952;10.818;2022-12-07T05:50:48;2.28;;;0.30;;
28988;SDS011;16089;59.952;10.818;2022-12-07T05:53:15;2.30;;;0.50;;
28988;SDS011;16089;59.952;10.818;2022-12-07T05:55:43;3.05;;;0.52;;
28988;SDS011;16089;59.952;10.818;2022-12-07T05:58:09;0.68;;;0.30;;
28988;SDS011;16089;59.952;10.818;2022-12-07T06:00:53;2.00;;;0.50;;
28988;SDS011;16089;59.952;10.818;2022-12-07T06:03:20;1.40;;;0.50;;
28988;SDS011;16089;59.952;10.818;2022-12-07T06:05:46;1.05;;;0.40;;
28988;SDS011;16089;59.952;10.818;2022-12-07T06:08:12;1.85;;;0.82;;
28988;SDS011;16089;59.952;10.818;2022-12-07T06:10:39;1.63;;;0.47;;
28988;SDS011;16089;59.952;10.818;2022-12-07T06:13:08;1.85;;;0.60;;
28988;SDS011;16089;59.952;10.818;2022-12-07T06:15:34;0.80;;;0.30;;
28988;SDS011;16089;59.952;10.818;2022-12-07T06:18:01;1.60;;;0.35;;
28988;SDS011;16089;59.952;10.818;2022-12-07T06:20:27;2.85;;;0.50;;
28988;SDS011;16089;59.952;10.818;2022-12-07T06:22:53;3.95;;;0.50;;
28988;SDS011;16089;59.952;10.818;2022-12-07T06:25:20;1.42;;;0.40;;
28988;SDS011;16089;59.952;10.818;2022-12-07T06:27:46;0.85;;;0.40;;
28988;SDS011;16089;59.952;10.818;2022-12-07T06:30:14;1.15;;;0.52;;
28988;SDS011;16089;59.952;10.818;2022-12-07T06:32:40;0.73;;;0.40;;
28988;SDS011;16089;59.952;10.818;2022-12-07T06:35:07;2.72;;;0.40;;
28988;SDS011;16089;59.952;10.818;2022-12-07T06:37:33;1.20;;;0.38;;
28988;SDS011;16089;59.952;10.818;2022-12-07T06:40:00;1.95;;;0.57;;
28988;SDS011;16089;59.952;10.818;2022-12-07T06:42:26;1.25;;;0.40;;
28988;SDS011;16089;59.952;10.818;2022-12-07T06:44:52;1.58;;;0.50;;
28988;SDS011;16089;59.952;10.818;2022-12-07T06:47:20;4.10;;;1.20;;
28988;SDS011;16089;59.952;10.818;2022-12-07T06:49:46;16.95;;;6.13;;
28988;SDS011;16089;59.952;10.818;2022-12-07T06:52:13;8.18;;;2.95;;
28988;SDS011;16089;59.952;10.818;2022-12-07T06:54:39;6.38;;;1.00;;
28988;SDS011;16089;59.952;10.818;2022-12-07T06:57:05;1.65;;;0.60;;
28988;SDS011;16089;59.952;10.818;2022-12-07T06:59:31;1.02;;;0.47;;
28988;SDS011;16089;59.952;10.818;2022-12-07T07:01:58;3.55;;;0.70;;
28988;SDS011;16089;59.952;10.818;2022-12-07T07:04:25;0.63;;;0.30;;
28988;SDS011;16089;59.952;10.818;2022-12-07T07:06:52;2.58;;;0.50;;
28988;SDS011;16089;59.952;10.818;2022-12-07T07:09:18;4.63;;;0.60;;
28988;SDS011;16089;59.952;10.818;2022-12-07T07:11:44;1.85;;;0.50;;
28988;SDS011;16089;59.952;10.818;2022-12-07T07:14:11;2.53;;;0.40;;
28988;SDS011;16089;59.952;10.818;2022-12-07T07:16:37;1.35;;;0.50;;
28988;SDS011;16089;59.952;10.818;2022-12-07T07:19:03;1.98;;;0.50;;
28988;SDS011;16089;59.952;10.818;2022-12-07T07:21:31;3.30;;;0.63;;
28988;SDS011;16089;59.952;10.818;2022-12-07T07:23:57;2.15;;;0.40;;
28988;SDS011;16089;59.952;10.818;2022-12-07T07:26:23;1.25;;;0.40;;
28988;SDS011;16089;59.952;10.818;2022-12-07T07:28:50;1.17;;;0.40;;
28988;SDS011;16089;59.952;10.818;2022-12-07T07:31:16;1.75;;;0.47;;
28988;SDS011;16089;59.952;10.818;2022-12-07T07:33:42;3.60;;;0.52;;
28988;SDS011;16089;59.952;10.818;2022-12-07T07:36:09;4.40;;;0.57;;
28988;SDS011;16089;59.952;10.818;2022-12-07T07:38:36;2.88;;;0.85;;
28988;SDS011;16089;59.952;10.818;2022-12-07T07:41:03;2.40;;;0.73;;
28988;SDS011;16089;59.952;10.818;2022-12-07T07:43:29;1.45;;;0.60;;
28988;SDS011;16089;59.952;10.818;2022-12-07T07:45:55;3.30;;;0.65;;
28988;SDS011;16089;59.952;10.818;2022-12-07T07:48:21;1.58;;;0.50;;
28988;SDS011;16089;59.952;10.818;2022-12-07T07:50:50;3.03;;;0.50;;
28988;SDS011;16089;59.952;10.818;2022-12-07T07:53:16;6.18;;;2.03;;
28988;SDS011;16089;59.952;10.818;2022-12-07T07:55:50;4.28;;;1.27;;
28988;SDS011;16089;59.952;10.818;2022-12-07T08:00:43;2.13;;;0.45;;
28988;SDS011;16089;59.952;10.818;2022-12-07T08:03:09;1.75;;;0.50;;
28988;SDS011;16089;59.952;10.818;2022-12-07T08:05:36;3.35;;;0.60;;
28988;SDS011;16089;59.952;10.818;2022-12-07T08:08:03;3.33;;;0.57;;
28988;SDS011;16089;59.952;10.818;2022-12-07T08:10:29;2.30;;;0.82;;
28988;SDS011;16089;59.952;10.818;2022-12-07T08:12:58;4.97;;;0.88;;
28988;SDS011;16089;59.952;10.818;2022-12-07T08:15:38;1.35;;;0.60;;
28988;SDS011;16089;59.952;10.818;2022-12-07T08:18:05;1.73;;;0.55;;
28988;SDS011;16089;59.952;10.818;2022-12-07T08:20:32;2.08;;;0.50;;
28988;SDS011;16089;59.952;10.818;2022-12-07T08:22:58;2.00;;;0.50;;
28988;SDS011;16089;59.952;10.818;2022-12-07T08:25:25;1.65;;;0.38;;
28988;SDS011;16089;59.952;10.818;2022-12-07T08:27:51;1.83;;;0.65;;
28988;SDS011;16089;59.952;10.818;2022-12-07T08:30:19;1.73;;;0.52;;
28988;SDS011;16089;59.952;10.818;2022-12-07T08:32:47;2.75;;;0.45;;
28988;SDS011;16089;59.952;10.818;2022-12-07T08:35:13;2.20;;;0.80;;
28988;SDS011;16089;59.952;10.818;2022-12-07T08:37:40;2.42;;;0.40;;
28988;SDS011;16089;59.952;10.818;2022-12-07T08:40:07;3.53;;;0.68;;
28988;SDS011;16089;59.952;10.818;2022-12-07T08:42:33;3.22;;;0.73;;
28988;SDS011;16089;59.952;10.818;2022-12-07T08:45:05;2.63;;;0.50;;
28988;SDS011;16089;59.952;10.818;2022-12-07T08:47:33;0.88;;;0.40;;
28988;SDS011;16089;59.952;10.818;2022-12-07T08:49:59;2.33;;;0.50;;
28988;SDS011;16089;59.952;10.818;2022-12-07T08:52:28;1.00;;;0.50;;
28988;SDS011;16089;59.952;10.818;2022-12-07T08:54:55;3.10;;;1.77;;
28988;SDS011;16089;59.952;10.818;2022-12-07T08:57:22;3.58;;;0.55;;
28988;SDS011;16089;59.952;10.818;2022-12-07T08:59:48;2.53;;;0.60;;
28988;SDS011;16089;59.952;10.818;2022-12-07T09:02:14;4.00;;;0.80;;
28988;SDS011;16089;59.952;10.818;2022-12-07T09:04:42;10.45;;;3.47;;
28988;SDS011;16089;59.952;10.818;2022-12-07T09:07:09;11.60;;;4.90;;
28988;SDS011;16089;59.952;10.818;2022-12-07T09:09:35;16.85;;;6.85;;
28988;SDS011;16089;59.952;10.818;2022-12-07T09:12:01;12.63;;;5.57;;
28988;SDS011;16089;59.952;10.818;2022-12-07T09:14:28;13.32;;;4.90;;
28988;SDS011;16089;59.952;10.818;2022-12-07T09:16:54;9.55;;;3.42;;
28988;SDS011;16089;59.952;10.818;2022-12-07T09:19:20;11.43;;;2.97;;
28988;SDS011;16089;59.952;10.818;2022-12-07T09:21:48;7.95;;;2.70;;
28988;SDS011;16089;59.952;10.818;2022-12-07T09:24:15;6.85;;;2.53;;
28988;SDS011;16089;59.952;10.818;2022-12-07T09:26:41;9.23;;;3.50;;
28988;SDS011;16089;59.952;10.818;2022-12-07T09:29:07;11.98;;;3.80;;
28988;SDS011;16089;59.952;10.818;2022-12-07T09:31:35;8.63;;;2.53;;
28988;SDS011;16089;59.952;10.818;2022-12-07T09:34:01;11.15;;;3.55;;
28988;SDS011;16089;59.952;10.818;2022-12-07T09:36:29;6.57;;;2.80;;
28988;SDS011;16089;59.952;10.818;2022-12-07T09:38:58;9.15;;;3.38;;
28988;SDS011;16089;59.952;10.818;2022-12-07T09:41:25;10.52;;;4.15;;
28988;SDS011;16089;59.952;10.818;2022-12-07T09:43:52;12.45;;;4.45;;
28988;SDS011;16089;59.952;10.818;2022-12-07T09:46:19;9.93;;;3.85;;
28988;SDS011;16089;59.952;10.818;2022-12-07T09:48:47;8.90;;;3.10;;
28988;SDS011;16089;59.952;10.818;2022-12-07T09:51:15;6.70;;;2.90;;
28988;SDS011;16089;59.952;10.818;2022-12-07T09:53:42;7.43;;;3.00;;
28988;SDS011;16089;59.952;10.818;2022-12-07T09:56:11;6.70;;;2.75;;
28988;SDS011;16089;59.952;10.818;2022-12-07T09:58:38;8.80;;;2.90;;
28988;SDS011;16089;59.952;10.818;2022-12-07T10:01:10;11.60;;;3.90;;
28988;SDS011;16089;59.952;10.818;2022-12-07T10:03:38;7.93;;;2.72;;
28988;SDS011;16089;59.952;10.818;2022-12-07T10:06:05;6.97;;;2.42;;
28988;SDS011;16089;59.952;10.818;2022-12-07T10:08:32;7.38;;;2.20;;
28988;SDS011;16089;59.952;10.818;2022-12-07T10:10:59;6.45;;;2.17;;
28988;SDS011;16089;59.952;10.818;2022-12-07T10:13:35;7.70;;;2.35;;
28988;SDS011;16089;59.952;10.818;2022-12-07T10:16:01;5.75;;;1.92;;
28988;SDS011;16089;59.952;10.818;2022-12-07T10:18:29;5.43;;;1.90;;
28988;SDS011;16089;59.952;10.818;2022-12-07T10:21:03;5.82;;;2.20;;
28988;SDS011;16089;59.952;10.818;2022-12-07T10:23:29;3.00;;;1.00;;
28988;SDS011;16089;59.952;10.818;2022-12-07T10:25:56;0.95;;;0.40;;
28988;SDS011;16089;59.952;10.818;2022-12-07T10:28:22;0.98;;;0.30;;
28988;SDS011;16089;59.952;10.818;2022-12-07T10:30:51;1.63;;;0.73;;
28988;SDS011;16089;59.952;10.818;2022-12-07T10:38:44;6.90;;;2.10;;
28988;SDS011;16089;59.952;10.818;2022-12-07T10:41:11;5.75;;;1.90;;
28988;SDS011;16089;59.952;10.818;2022-12-07T10:43:37;7.50;;;1.98;;
28988;SDS011;16089;59.952;10.818;2022-12-07T10:49:01;11.68;;;3.05;;
28988;SDS011;16089;59.952;10.818;2022-12-07T10:51:32;7.78;;;3.00;;
28988;SDS011;16089;59.952;10.818;2022-12-07T10:54:03;7.05;;;2.60;;
28988;SDS011;16089;59.952;10.818;2022-12-07T10:56:36;8.73;;;2.63;;
28988;SDS011;16089;59.952;10.818;2022-12-07T10:59:12;5.72;;;2.22;;
28988;SDS011;16089;59.952;10.818;2022-12-07T11:01:45;5.72;;;2.20;;
28988;SDS011;16089;59.952;10.818;2022-12-07T11:04:21;6.88;;;2.65;;
28988;SDS011;16089;59.952;10.818;2022-12-07T11:06:51;7.60;;;2.75;;
28988;SDS011;16089;59.952;10.818;2022-12-07T11:09:26;6.40;;;2.53;;
28988;SDS011;16089;59.952;10.818;2022-12-07T11:11:57;10.05;;;3.35;;
28988;SDS011;16089;59.952;10.818;2022-12-07T11:14:28;8.93;;;2.60;;
28988;SDS011;16089;59.952;10.818;2022-12-07T11:16:56;9.27;;;2.75;;
28988;SDS011;16089;59.952;10.818;2022-12-07T11:19:32;7.93;;;2.58;;
28988;SDS011;16089;59.952;10.818;2022-12-07T11:22:04;10.95;;;2.70;;
28988;SDS011;16089;59.952;10.818;2022-12-07T11:24:32;10.02;;;2.85;;
28988;SDS011;16089;59.952;10.818;2022-12-07T11:27:05;9.70;;;2.50;;
28988;SDS011;16089;59.952;10.818;2022-12-07T11:29:44;7.50;;;2.67;;
28988;SDS011;16089;59.952;10.818;2022-12-07T11:32:21;9.43;;;3.13;;
28988;SDS011;16089;59.952;10.818;2022-12-07T11:35:32;8.20;;;3.35;;
28988;SDS011;16089;59.952;10.818;2022-12-07T11:38:00;8.35;;;3.10;;
28988;SDS011;16089;59.952;10.818;2022-12-07T11:40:28;7.47;;;2.95;;
28988;SDS011;16089;59.952;10.818;2022-12-07T11:42:59;4.65;;;1.70;;
28988;SDS011;16089;59.952;10.818;2022-12-07T11:45:28;8.43;;;2.10;;
28988;SDS011;16089;59.952;10.818;2022-12-07T11:47:58;10.23;;;2.30;;
28988;SDS011;16089;59.952;10.818;2022-12-07T11:50:27;5.47;;;2.20;;
28988;SDS011;16089;59.952;10.818;2022-12-07T11:52:56;2.55;;;0.77;;
28988;SDS011;16089;59.952;10.818;2022-12-07T11:55:24;1.75;;;0.80;;
28988;SDS011;16089;59.952;10.818;2022-12-07T11:57:53;6.53;;;1.42;;
28988;SDS011;16089;59.952;10.818;2022-12-07T12:00:22;3.72;;;1.48;;
28988;SDS011;16089;59.952;10.818;2022-12-07T12:02:51;5.68;;;2.13;;
28988;SDS011;16089;59.952;10.818;2022-12-07T12:05:19;6.63;;;2.30;;
28988;SDS011;16089;59.952;10.818;2022-12-07T12:07:48;10.32;;;2.63;;
28988;SDS011;16089;59.952;10.818;2022-12-07T12:10:18;13.50;;;2.60;;
28988;SDS011;16089;59.952;10.818;2022-12-07T12:12:48;8.77;;;2.42;;
28988;SDS011;16089;59.952;10.818;2022-12-07T12:15:23;9.82;;;2.70;;
28988;SDS011;16089;59.952;10.818;2022-12-07T12:17:57;12.95;;;3.15;;
28988;SDS011;16089;59.952;10.818;2022-12-07T12:20:26;8.98;;;3.05;;
28988;SDS011;16089;59.952;10.818;2022-12-07T12:22:55;10.60;;;2.78;;
28988;SDS011;16089;59.952;10.818;2022-12-07T12:25:26;8.70;;;2.83;;
28988;SDS011;16089;59.952;10.818;2022-12-07T12:27:54;19.85;;;4.10;;
28988;SDS011;16089;59.952;10.818;2022-12-07T12:30:26;12.93;;;3.58;;
28988;SDS011;16089;59.952;10.818;2022-12-07T12:33:00;19.23;;;4.03;;
28988;SDS011;16089;59.952;10.818;2022-12-07T12:35:28;14.50;;;4.10;;
28988;SDS011;16089;59.952;10.818;2022-12-07T12:37:56;11.10;;;3.60;;
28988;SDS011;16089;59.952;10.818;2022-12-07T12:40:44;12.88;;;3.42;;
28988;SDS011;16089;59.952;10.818;2022-12-07T12:48:28;12.55;;;3.38;;
28988;SDS011;16089;59.952;10.818;2022-12-07T12:53:36;3.83;;;1.27;;
28988;SDS011;16089;59.952;10.818;2022-12-07T12:56:17;2.08;;;0.73;;
28988;SDS011;16089;59.952;10.818;2022-12-07T12:58:47;5.00;;;1.08;;
28988;SDS011;16089;59.952;10.818;2022-12-07T13:04:34;2.95;;;0.52;;
28988;SDS011;16089;59.952;10.818;2022-12-07T13:07:02;0.50;;;0.30;;
28988;SDS011;16089;59.952;10.818;2022-12-07T13:09:29;2.08;;;0.45;;
28988;SDS011;16089;59.952;10.818;2022-12-07T13:12:00;19.98;;;7.68;;
28988;SDS011;16089;59.952;10.818;2022-12-07T13:14:43;7.70;;;2.53;;
28988;SDS011;16089;59.952;10.818;2022-12-07T13:19:59;2.47;;;0.50;;
28988;SDS011;16089;59.952;10.818;2022-12-07T13:22:40;1.50;;;0.57;;
28988;SDS011;16089;59.952;10.818;2022-12-07T13:25:07;1.00;;;0.40;;
28988;SDS011;16089;59.952;10.818;2022-12-07T13:27:37;2.15;;;0.50;;
28988;SDS011;16089;59.952;10.818;2022-12-07T13:30:09;1.48;;;0.43;;
28988;SDS011;16089;59.952;10.818;2022-12-07T13:32:38;1.52;;;0.70;;
28988;SDS011;16089;59.952;10.818;2022-12-07T13:37:47;3.15;;;0.65;;
28988;SDS011;16089;59.952;10.818;2022-12-07T13:40:16;1.77;;;0.60;;
28988;SDS011;16089;59.952;10.818;2022-12-07T13:42:44;1.45;;;0.60;;
28988;SDS011;16089;59.952;10.818;2022-12-07T13:45:17;1.77;;;0.70;;
28988;SDS011;16089;59.952;10.818;2022-12-07T13:47:48;2.53;;;0.77;;
28988;SDS011;16089;59.952;10.818;2022-12-07T13:50:21;3.70;;;1.00;;
28988;SDS011;16089;59.952;10.818;2022-12-07T13:52:48;7.25;;;1.40;;
28988;SDS011;16089;59.952;10.818;2022-12-07T13:55:15;7.28;;;1.50;;
28988;SDS011;16089;59.952;10.818;2022-12-07T13:57:42;5.53;;;1.40;;
28988;SDS011;16089;59.952;10.818;2022-12-07T14:00:15;1.65;;;0.60;;
28988;SDS011;16089;59.952;10.818;2022-12-07T14:02:53;2.33;;;0.50;;
28988;SDS011;16089;59.952;10.818;2022-12-07T14:05:23;4.13;;;0.60;;
28988;SDS011;16089;59.952;10.818;2022-12-07T14:07:53;1.27;;;0.60;;
28988;SDS011;16089;59.952;10.818;2022-12-07T14:10:24;1.10;;;0.40;;
28988;SDS011;16089;59.952;10.818;2022-12-07T14:12:50;1.23;;;0.50;;
28988;SDS011;16089;59.952;10.818;2022-12-07T14:15:19;1.20;;;0.35;;
28988;SDS011;16089;59.952;10.818;2022-12-07T14:17:49;2.42;;;0.70;;
28988;SDS011;16089;59.952;10.818;2022-12-07T14:20:28;6.55;;;2.10;;
28988;SDS011;16089;59.952;10.818;2022-12-07T14:22:55;6.78;;;1.77;;
28988;SDS011;16089;59.952;10.818;2022-12-07T14:25:22;5.47;;;2.13;;
28988;SDS011;16089;59.952;10.818;2022-12-07T14:27:53;7.07;;;2.45;;
28988;SDS011;16089;59.952;10.818;2022-12-07T14:30:23;5.88;;;2.60;;
28988;SDS011;16089;59.952;10.818;2022-12-07T14:32:51;6.00;;;2.38;;
28988;SDS011;16089;59.952;10.818;2022-12-07T14:35:18;4.80;;;2.35;;
28988;SDS011;16089;59.952;10.818;2022-12-07T14:37:45;8.93;;;3.13;;
28988;SDS011;16089;59.952;10.818;2022-12-07T14:40:15;6.35;;;3.00;;
28988;SDS011;16089;59.952;10.818;2022-12-07T14:42:43;8.55;;;3.63;;
28988;SDS011;16089;59.952;10.818;2022-12-07T14:45:13;9.27;;;3.45;;
28988;SDS011;16089;59.952;10.818;2022-12-07T14:47:43;6.25;;;2.17;;
28988;SDS011;16089;59.952;10.818;2022-12-07T14:50:11;6.15;;;1.90;;
28988;SDS011;16089;59.952;10.818;2022-12-07T14:52:38;2.63;;;1.20;;
28988;SDS011;16089;59.952;10.818;2022-12-07T14:55:07;4.05;;;1.33;;
28988;SDS011;16089;59.952;10.818;2022-12-07T14:57:38;5.05;;;1.17;;
28988;SDS011;16089;59.952;10.818;2022-12-07T15:00:05;5.40;;;1.27;;
28988;SDS011;16089;59.952;10.818;2022-12-07T15:02:31;3.67;;;1.30;;
28988;SDS011;16089;59.952;10.818;2022-12-07T15:04:59;4.80;;;1.45;;
28988;SDS011;16089;59.952;10.818;2022-12-07T15:07:25;5.70;;;1.63;;
28988;SDS011;16089;59.952;10.818;2022-12-07T15:09:52;7.50;;;1.70;;